Clearwater, FL

12:08 AM EDT on September 23, 2014 (GMT -0400)
Tampa International | Change Station
CLOSE
Current Station
Airport
Location: Tampa,
Elevation: 10 ft
Nearby Weather Stations

Elev 10 ft 27.96 °N, 82.54 °W | Updated 15 minutes ago

Mostly Cloudy
Mostly Cloudy
74 °F
Feels Like 74 °F
N
4
Wind Variable Wind from East

Today
High -- | Low -- °F
--% Chance of Precip.
Yesterday
High -- | Low -- °F
Precip. -- in
7:20 AM 7:26 PM
Waning Crescent, 1% visible
Pressure 30.01 in
Visibility 10.0 miles
Clouds Few 2000 ft
Scattered Clouds 4000 ft
Mostly Cloudy 8500 ft
Dew Point 71 °F
Humidity 91%
Rainfall 0.63 in
Snow Depth Not available.
UV 0 out of 12
Pollen 2.10 out of 12
Air Quality Not available.
Flu Activity Not available.
METAR KTPA 230353Z 08003KT 10SM FEW020 SCT040 BKN085 23/22 A3001 RMK AO2 SLP163 T02330217

More Conditions Fewer Conditions

Pressure 30.01 in
Visibility 10.0 miles
Clouds Few 2000 ft
Scattered Clouds 4000 ft
Mostly Cloudy 8500 ft
Dew Point 71 °F
Humidity 91%
Rainfall 0.63 in
Snow Depth Not available.
UV 0 out of 12
Pollen 2.10 out of 12
Air Quality Not available.
Flu Activity Not available.
METAR KTPA 230353Z 08003KT 10SM FEW020 SCT040 BKN085 23/22 A3001 RMK AO2 SLP163 T02330217

More Conditions Fewer Conditions

10-Day Weather Forecast

Almanac

Astronomy

Sep. 23, 2014 Rise Set
Actual Time 7:20 AM EDT 7:26 PM EDT
Civil Twilight 6:56 AM EDT 7:49 PM EDT
Nautical Twilight 6:29 AM EDT 8:17 PM EDT
Astronomical Twilight 6:01 AM EDT 8:44 PM EDT
Moon 6:44 AM EDT 7:05 PM EDT
Length of Visible Light 12h 53m
Length of Day
12h 06m
Tomorrow will be 1m 40s shorter.
Waning Crescent, 1% of the Moon is Illuminated
Today
Waning Crescent
Sep 24
New
Oct 1
First Quarter
Oct 8
Full
Oct 15
Last Quarter

Yesterday's Extremes

State Highs State Lows

Community

WunderPhotos

Upload Photos

1,755,611 photos uploaded!

Nearby

Air Quality

  Air Quality AQ Index Pollutant
Yesterday Good
OZONE
Yesterday Good
PM2.5
Monday Good
PM2.5
Monday Good
OZONE
Tuesday Good
PM2.5
Tuesday Good
OZONE

Snow Depth

Station Depth Elevation
No new snow has been reported.

Earthquake Activity

City Distance Mag. Time & Date
No recent earthquake activity has been reported nearby.
Minimum magnitude displayed is 2.5.

Coastal Water Temperatures

Place Temperature
Port Manatee, FL 82.9 °F
St Petersburg, FL 84.9 °F
Old Port Tampa, FL 82.0 °F

Nearby Weather Stations